createdAt,value
2022-07-25T00:02:08.901Z,74.07
2022-07-25T00:04:36.474Z,74.15
2022-07-25T00:07:04.096Z,73.96
2022-07-25T00:09:33.972Z,73.97
2022-07-25T00:12:00.960Z,74.04
2022-07-25T00:14:28.256Z,73.62
2022-07-25T00:16:55.515Z,73.92
2022-07-25T00:19:22.883Z,72.21
2022-07-25T00:21:51.362Z,72.37
2022-07-25T00:24:21.147Z,72.18
2022-07-25T00:26:48.204Z,73.26
2022-07-25T00:29:15.491Z,73.07
2022-07-25T00:31:42.908Z,73.45
2022-07-25T00:34:10.448Z,73.11
2022-07-25T00:36:38.310Z,72.84
2022-07-25T00:39:05.817Z,73.30
2022-07-25T00:41:33.329Z,73.90
2022-07-25T00:44:01.455Z,76.01
2022-07-25T00:46:29.833Z,77.40
2022-07-25T00:48:58.540Z,79.26
2022-07-25T00:51:26.047Z,79.72
2022-07-25T00:53:52.997Z,80.61
2022-07-25T00:56:23.644Z,80.62
2022-07-25T00:58:53.401Z,81.03
2022-07-25T01:01:22.850Z,82.16
2022-07-25T01:03:50.404Z,82.26
2022-07-25T01:06:19.011Z,82.32
2022-07-25T01:08:51.787Z,83.13
2022-07-25T01:11:19.165Z,84.79
2022-07-25T01:13:46.418Z,84.08
2022-07-25T01:16:14.348Z,84.14
2022-07-25T01:18:42.843Z,84.08
2022-07-25T01:21:12.432Z,85.05
2022-07-25T01:23:45.351Z,85.42
2022-07-25T01:26:13.102Z,85.11
2022-07-25T01:28:40.792Z,85.05
2022-07-25T01:31:08.031Z,85.55
2022-07-25T01:33:37.391Z,85.50
2022-07-25T01:36:04.931Z,86.06
2022-07-25T01:38:32.011Z,86.57
2022-07-25T01:40:59.344Z,86.45
2022-07-25T01:43:28.603Z,86.23
2022-07-25T01:45:56.141Z,86.07
2022-07-25T01:48:23.754Z,86.06
2022-07-25T01:50:50.885Z,86.00
2022-07-25T01:53:21.337Z,86.20
2022-07-25T01:55:48.835Z,87.15
2022-07-25T01:58:15.794Z,87.02
2022-07-25T02:00:46.928Z,85.59
2022-07-25T02:03:32.411Z,84.61
2022-07-25T02:06:08.262Z,85.59
2022-07-25T02:08:35.720Z,84.55
2022-07-25T02:11:06.015Z,83.70
2022-07-25T02:13:33.110Z,83.45
2022-07-25T02:16:00.563Z,83.34
2022-07-25T02:18:30.850Z,83.28
2022-07-25T02:21:00.452Z,83.60
2022-07-25T02:23:27.845Z,83.76
2022-07-25T02:25:54.815Z,83.68
2022-07-25T02:28:26.326Z,84.17
2022-07-25T02:30:53.552Z,84.14
2022-07-25T02:33:20.535Z,84.12
2022-07-25T02:35:47.571Z,84.38
2022-07-25T02:38:19.846Z,84.41
2022-07-25T02:40:50.242Z,84.38
2022-07-25T02:43:17.963Z,84.62
2022-07-25T02:45:45.481Z,84.91
2022-07-25T02:48:13.251Z,81.95
2022-07-25T02:50:40.569Z,79.48
2022-07-25T02:53:07.599Z,79.55
2022-07-25T02:55:37.320Z,79.31
2022-07-25T02:58:06.967Z,79.75
2022-07-25T03:00:37.160Z,80.03
2022-07-25T03:03:04.315Z,79.97
2022-07-25T03:05:31.607Z,79.97
2022-07-25T03:07:58.608Z,79.51
2022-07-25T03:10:25.597Z,79.00
2022-07-25T03:12:52.831Z,79.11
2022-07-25T03:15:19.792Z,79.41
2022-07-25T03:17:46.762Z,80.08
2022-07-25T03:20:16.261Z,80.45
2022-07-25T03:22:43.166Z,80.46
2022-07-25T03:25:16.034Z,80.83
2022-07-25T03:27:49.088Z,81.29
2022-07-25T03:30:18.381Z,81.77
2022-07-25T03:32:48.138Z,80.24
2022-07-25T03:35:15.681Z,80.54
2022-07-25T03:37:45.789Z,80.64
2022-07-25T03:40:14.586Z,81.02
2022-07-25T03:42:43.882Z,80.99
2022-07-25T03:45:12.947Z,80.63
2022-07-25T03:47:40.285Z,80.40
2022-07-25T03:50:08.262Z,80.54
2022-07-25T03:52:35.862Z,79.78
2022-07-25T03:55:02.936Z,78.92
2022-07-25T03:57:30.071Z,77.33
2022-07-25T03:59:57.153Z,76.44
2022-07-25T04:02:26.715Z,72.40
2022-07-25T04:04:53.919Z,67.02
2022-07-25T04:07:21.336Z,65.94
2022-07-25T04:09:50.797Z,66.71
2022-07-25T04:12:17.941Z,68.20
2022-07-25T04:14:47.594Z,69.43
2022-07-25T04:17:17.511Z,70.24
2022-07-25T04:19:44.710Z,69.41
2022-07-25T04:22:14.467Z,70.64
2022-07-25T04:24:44.023Z,70.51
2022-07-25T04:27:11.157Z,68.63
2022-07-25T04:29:38.137Z,69.71
2022-07-25T04:32:05.874Z,71.26
2022-07-25T04:34:33.107Z,71.63
2022-07-25T04:37:02.393Z,72.48
2022-07-25T04:39:30.269Z,72.06
2022-07-25T04:41:59.571Z,70.85
2022-07-25T04:44:28.873Z,69.87
2022-07-25T04:46:56.009Z,70.88
2022-07-25T04:49:23.169Z,69.44
2022-07-25T04:51:51.317Z,67.28
2022-07-25T04:54:18.804Z,65.16
2022-07-25T04:56:45.943Z,65.97
2022-07-25T04:59:12.980Z,68.08
2022-07-25T05:01:39.864Z,64.28
2022-07-25T05:04:09.518Z,62.96
2022-07-25T05:06:36.772Z,62.72
2022-07-25T05:09:04.246Z,62.94
2022-07-25T05:11:31.840Z,63.66
2022-07-25T05:13:58.943Z,64.82
2022-07-25T05:16:26.143Z,63.79
2022-07-25T05:18:55.678Z,62.57
2022-07-25T05:21:23.859Z,61.08
2022-07-25T05:23:50.805Z,56.54
2022-07-25T05:26:18.106Z,49.58
2022-07-25T05:28:44.996Z,49.57
2022-07-25T05:31:11.983Z,49.91
2022-07-25T05:33:40.007Z,51.09
2022-07-25T05:36:09.763Z,50.48
2022-07-25T05:38:36.919Z,52.37
2022-07-25T05:41:04.579Z,50.52
2022-07-25T05:43:33.715Z,47.86
2022-07-25T05:46:02.599Z,47.78
2022-07-25T05:48:30.159Z,50.54
2022-07-25T05:50:59.203Z,50.90
2022-07-25T05:53:26.223Z,50.63
2022-07-25T05:55:53.321Z,49.09
2022-07-25T05:58:27.550Z,50.52
2022-07-25T06:00:57.741Z,51.89
2022-07-25T06:03:24.923Z,52.34
2022-07-25T06:05:51.903Z,52.34
2022-07-25T06:08:19.124Z,52.52
2022-07-25T06:10:49.626Z,49.35
2022-07-25T06:13:16.556Z,47.12
2022-07-25T06:15:47.305Z,47.68
2022-07-25T06:18:14.331Z,47.63
2022-07-25T06:20:41.487Z,47.39
2022-07-25T06:23:08.660Z,48.15
2022-07-25T06:25:35.851Z,49.50
2022-07-25T06:28:02.958Z,49.68
2022-07-25T06:30:30.425Z,48.59
2022-07-25T06:32:57.487Z,48.90
2022-07-25T06:35:25.534Z,48.29
2022-07-25T06:37:52.820Z,48.05
2022-07-25T06:40:20.370Z,48.03
2022-07-25T06:42:47.877Z,45.52
2022-07-25T06:45:16.500Z,44.99
2022-07-25T06:47:44.955Z,45.57
2022-07-25T06:50:18.553Z,45.03
2022-07-25T06:52:48.888Z,42.57
2022-07-25T06:55:16.042Z,41.76
2022-07-25T06:57:43.549Z,40.64
2022-07-25T07:00:12.870Z,39.10
2022-07-25T07:02:53.355Z,37.57
2022-07-25T07:05:21.046Z,34.10
2022-07-25T07:07:48.340Z,30.57
2022-07-25T07:10:16.676Z,30.50
2022-07-25T07:12:46.595Z,28.12
2022-07-25T07:15:13.835Z,27.27
2022-07-25T07:17:41.275Z,26.93
2022-07-25T07:20:11.940Z,25.37
2022-07-25T07:22:49.331Z,25.84
2022-07-25T07:25:19.688Z,25.16
2022-07-25T07:27:48.075Z,25.82
2022-07-25T07:30:16.849Z,25.40
2022-07-25T07:32:47.484Z,24.39
2022-07-25T07:35:16.650Z,24.71
2022-07-25T07:37:46.871Z,23.71
2022-07-25T07:40:17.936Z,23.68
2022-07-25T07:42:47.571Z,23.84
2022-07-25T07:45:17.774Z,24.02
2022-07-25T07:47:48.285Z,22.60
2022-07-25T07:50:18.000Z,22.91
2022-07-25T07:52:48.786Z,22.63
2022-07-25T07:55:35.183Z,22.04
2022-07-25T07:58:02.655Z,21.64
2022-07-25T08:00:35.928Z,22.94
2022-07-25T08:03:03.622Z,21.87
2022-07-25T08:05:34.642Z,22.76
2022-07-25T08:08:02.205Z,22.96
2022-07-25T08:10:33.005Z,20.63
2022-07-25T08:13:12.669Z,20.88
2022-07-25T08:15:44.117Z,23.53
2022-07-25T08:18:17.138Z,22.04
2022-07-25T08:20:49.011Z,20.75
2022-07-25T08:23:16.634Z,20.29
2022-07-25T08:25:44.485Z,21.39
2022-07-25T08:28:11.811Z,19.84
2022-07-25T08:30:40.581Z,21.39
2022-07-25T08:33:13.610Z,20.70
2022-07-25T08:35:45.665Z,20.06
2022-07-25T08:38:15.685Z,19.76
2022-07-25T08:40:42.874Z,20.89
2022-07-25T08:43:13.051Z,20.10
2022-07-25T08:45:49.149Z,20.26
2022-07-25T08:48:22.196Z,20.04
2022-07-25T08:50:50.649Z,19.48
2022-07-25T08:53:36.128Z,20.10
2022-07-25T08:56:16.017Z,20.31
2022-07-25T08:58:46.240Z,21.67
2022-07-25T09:01:14.458Z,20.54
2022-07-25T09:03:44.933Z,20.72
2022-07-25T09:06:20.163Z,21.17
2022-07-25T09:09:00.610Z,21.25
2022-07-25T09:11:34.117Z,21.55
2022-07-25T09:14:07.368Z,20.45
2022-07-25T09:16:40.330Z,20.36
2022-07-25T09:19:16.750Z,20.16
2022-07-25T09:21:45.713Z,20.80
2022-07-25T09:24:19.389Z,20.90
2022-07-25T09:26:53.769Z,20.97
2022-07-25T09:29:35.219Z,20.76
2022-07-25T09:32:16.629Z,21.47
2022-07-25T09:34:46.250Z,21.70
2022-07-25T09:37:15.857Z,20.44
2022-07-25T09:39:48.230Z,20.09
2022-07-25T09:42:32.793Z,21.07
2022-07-25T09:45:07.316Z,20.75
2022-07-25T09:47:37.399Z,20.74
2022-07-25T09:50:06.068Z,21.04
2022-07-25T09:52:33.960Z,20.39
2022-07-25T09:55:04.381Z,21.16
2022-07-25T09:57:31.642Z,21.19
2022-07-25T10:00:00.857Z,22.11
2022-07-25T10:02:53.142Z,21.02
2022-07-25T10:05:44.519Z,21.57
2022-07-25T10:08:12.188Z,21.44
2022-07-25T10:10:41.710Z,22.26
2022-07-25T10:13:15.485Z,21.90
2022-07-25T10:15:42.587Z,22.09
2022-07-25T10:18:16.265Z,23.29
2022-07-25T10:20:45.379Z,22.74
2022-07-25T10:23:18.718Z,22.77
2022-07-25T10:25:49.109Z,22.34
2022-07-25T10:28:19.933Z,22.53
2022-07-25T10:30:47.300Z,22.53
2022-07-25T10:33:18.450Z,22.79
2022-07-25T10:35:49.887Z,23.15
2022-07-25T10:38:26.711Z,23.24
2022-07-25T10:40:56.889Z,23.95
2022-07-25T10:43:27.545Z,24.97
2022-07-25T10:45:59.378Z,24.87
2022-07-25T10:48:26.649Z,24.88
2022-07-25T10:51:03.646Z,25.32
2022-07-25T10:53:34.058Z,27.77
2022-07-25T10:56:13.778Z,27.25
2022-07-25T10:58:54.668Z,26.91
2022-07-25T11:01:32.194Z,27.65
2022-07-25T11:04:06.275Z,26.68
2022-07-25T11:06:38.435Z,26.36
2022-07-25T11:09:25.078Z,25.80
2022-07-25T11:11:57.649Z,26.62
2022-07-25T11:14:33.539Z,26.69
2022-07-25T11:17:16.168Z,26.96
2022-07-25T11:19:45.345Z,26.43
2022-07-25T11:22:12.746Z,25.63
2022-07-25T11:24:47.060Z,26.33
2022-07-25T11:27:24.871Z,26.40
2022-07-25T11:29:52.314Z,27.07
2022-07-25T11:32:20.715Z,26.45
2022-07-25T11:34:52.337Z,27.32
2022-07-25T11:37:20.930Z,26.40
2022-07-25T11:39:50.660Z,26.67
2022-07-25T11:42:20.557Z,26.79
2022-07-25T11:44:50.573Z,26.88
2022-07-25T11:47:25.669Z,27.32
2022-07-25T11:49:59.213Z,27.43
2022-07-25T11:52:34.701Z,26.78
2022-07-25T11:55:05.033Z,26.54
2022-07-25T11:57:39.045Z,26.50
2022-07-25T12:00:11.839Z,27.24
2022-07-25T12:02:39.130Z,27.38
2022-07-25T12:05:08.051Z,28.09
2022-07-25T12:07:47.202Z,27.64
2022-07-25T12:10:24.450Z,27.78
2022-07-25T12:12:54.961Z,27.99
2022-07-25T12:15:29.811Z,29.65
2022-07-25T12:17:58.824Z,28.33
2022-07-25T12:20:29.284Z,29.18
2022-07-25T12:23:05.055Z,29.13
2022-07-25T12:25:34.148Z,28.60
2022-07-25T12:28:01.713Z,29.32
2022-07-25T12:30:32.860Z,29.60
2022-07-25T12:33:05.536Z,29.31
2022-07-25T12:35:33.409Z,29.54
2022-07-25T12:38:01.130Z,29.58
2022-07-25T12:40:28.839Z,29.96
2022-07-25T12:42:57.374Z,29.88
2022-07-25T12:45:24.962Z,29.94
2022-07-25T12:47:52.163Z,29.11
2022-07-25T12:50:19.738Z,29.70
2022-07-25T12:52:47.644Z,29.23
2022-07-25T12:55:17.226Z,29.58
2022-07-25T12:57:45.206Z,29.54
2022-07-25T13:00:15.526Z,30.03
2022-07-25T13:02:42.913Z,29.34
2022-07-25T13:05:13.516Z,29.89
2022-07-25T13:07:43.396Z,30.17
2022-07-25T13:10:21.128Z,30.08
2022-07-25T13:12:51.024Z,29.58
2022-07-25T13:15:20.719Z,30.04
2022-07-25T13:17:50.221Z,30.60
2022-07-25T13:20:17.995Z,30.12
2022-07-25T13:22:47.944Z,29.80
2022-07-25T13:25:15.085Z,29.91
2022-07-25T13:27:43.485Z,30.83
2022-07-25T13:30:15.009Z,29.77
2022-07-25T13:32:45.237Z,29.70
2022-07-25T13:35:36.583Z,30.76
2022-07-25T13:38:06.144Z,30.01
2022-07-25T13:40:34.083Z,30.45
2022-07-25T13:43:16.918Z,30.90
2022-07-25T13:45:52.858Z,30.19
2022-07-25T13:48:30.894Z,30.15
2022-07-25T13:51:02.321Z,30.39
2022-07-25T13:53:30.860Z,30.91
2022-07-25T13:55:59.831Z,30.37
2022-07-25T13:58:28.424Z,31.05
2022-07-25T14:00:58.022Z,30.44
2022-07-25T14:03:28.005Z,29.90
2022-07-25T14:06:00.226Z,29.72
2022-07-25T14:08:34.582Z,30.58
2022-07-25T14:11:02.554Z,30.73
2022-07-25T14:13:30.698Z,30.82
2022-07-25T14:15:58.159Z,30.36
2022-07-25T14:18:26.583Z,30.28
2022-07-25T14:20:55.236Z,30.85
2022-07-25T14:23:25.718Z,30.54
2022-07-25T14:25:59.586Z,30.93
2022-07-25T14:28:27.246Z,30.42
2022-07-25T14:30:54.891Z,30.47
2022-07-25T14:33:22.522Z,30.48
2022-07-25T14:35:49.736Z,30.83
2022-07-25T14:38:19.411Z,30.88
2022-07-25T14:40:48.079Z,30.75
2022-07-25T14:43:15.351Z,30.56
2022-07-25T14:45:42.814Z,30.61
2022-07-25T14:48:10.632Z,30.60
2022-07-25T14:50:37.782Z,30.92
2022-07-25T14:53:05.201Z,30.61
2022-07-25T14:55:35.084Z,31.26
2022-07-25T14:58:04.018Z,31.31
2022-07-25T15:00:31.598Z,31.28
2022-07-25T15:02:59.105Z,31.09
2022-07-25T15:05:30.604Z,31.85
2022-07-25T15:07:57.807Z,31.54
2022-07-25T15:10:25.222Z,30.78
2022-07-25T15:13:13.648Z,31.69
2022-07-25T15:15:40.294Z,31.11
2022-07-25T15:18:13.440Z,31.96
2022-07-25T15:20:41.317Z,31.29
2022-07-25T15:23:09.023Z,31.80
2022-07-25T15:28:25.565Z,31.89
2022-07-25T15:31:05.201Z,31.62
2022-07-25T15:33:35.746Z,31.48
2022-07-25T15:36:06.130Z,31.26
2022-07-25T15:38:33.974Z,31.55
2022-07-25T15:41:01.344Z,31.97
2022-07-25T15:43:28.423Z,32.20
2022-07-25T15:46:00.805Z,32.17
2022-07-25T15:48:29.261Z,32.50
2022-07-25T15:50:58.825Z,32.44
2022-07-25T15:53:26.537Z,32.48
2022-07-25T15:55:53.919Z,32.63
2022-07-25T15:58:23.465Z,32.35
2022-07-25T16:00:53.364Z,32.85
2022-07-25T16:03:21.743Z,33.20
2022-07-25T16:05:49.353Z,32.93
2022-07-25T16:08:17.482Z,33.21
2022-07-25T16:10:44.677Z,32.98
2022-07-25T16:13:14.116Z,32.84
2022-07-25T16:15:41.825Z,33.06
2022-07-25T16:18:08.968Z,33.30
2022-07-25T16:20:36.649Z,33.68
2022-07-25T16:23:05.512Z,32.79
2022-07-25T16:25:33.779Z,33.57
2022-07-25T16:28:03.894Z,33.45
2022-07-25T16:30:34.703Z,33.01
2022-07-25T16:33:02.709Z,33.34
2022-07-25T16:35:33.594Z,33.27
2022-07-25T16:38:01.018Z,33.66
2022-07-25T16:40:31.292Z,34.01
2022-07-25T16:42:59.409Z,33.55
2022-07-25T16:45:27.206Z,33.91
2022-07-25T16:47:56.936Z,34.12
2022-07-25T16:50:24.091Z,33.66
2022-07-25T16:52:54.112Z,33.92
2022-07-25T16:55:23.733Z,34.36
2022-07-25T16:57:51.087Z,34.71
2022-07-25T17:00:18.435Z,34.81
2022-07-25T17:02:46.848Z,35.30
2022-07-25T17:05:14.145Z,35.15
2022-07-25T17:07:44.352Z,35.28
2022-07-25T17:10:12.045Z,35.45
2022-07-25T17:12:42.317Z,35.80
2022-07-25T17:15:13.252Z,35.45
2022-07-25T17:17:40.827Z,36.06
2022-07-25T17:20:08.984Z,35.43
2022-07-25T17:22:36.690Z,35.21
2022-07-25T17:25:04.077Z,35.67
2022-07-25T17:27:35.147Z,36.18
2022-07-25T17:30:04.787Z,36.35
2022-07-25T17:32:31.801Z,36.54
2022-07-25T17:34:59.733Z,36.41
2022-07-25T17:37:28.171Z,36.84
2022-07-25T17:39:59.813Z,36.61
2022-07-25T17:42:27.315Z,37.86
2022-07-25T17:44:54.737Z,38.07
2022-07-25T17:47:23.057Z,38.54
2022-07-25T17:49:50.842Z,38.45
2022-07-25T17:52:20.677Z,38.59
2022-07-25T17:54:50.198Z,38.62
2022-07-25T17:57:17.471Z,38.99
2022-07-25T17:59:45.098Z,39.19
2022-07-25T18:02:15.022Z,39.19
2022-07-25T18:04:42.382Z,40.04
2022-07-25T18:07:09.390Z,40.25
2022-07-25T18:09:37.136Z,40.60
2022-07-25T18:12:04.704Z,41.20
2022-07-25T18:14:31.700Z,40.58
2022-07-25T18:16:58.958Z,41.47
2022-07-25T18:19:26.581Z,41.77
2022-07-25T18:21:53.583Z,42.46
2022-07-25T18:24:23.808Z,42.47
2022-07-25T18:26:56.795Z,43.19
2022-07-25T18:29:23.968Z,43.30
2022-07-25T18:31:51.153Z,43.67
2022-07-25T18:34:18.432Z,44.38
2022-07-25T18:36:47.598Z,44.57
2022-07-25T18:39:14.773Z,44.50
2022-07-25T18:41:42.121Z,44.70
2022-07-25T18:44:09.845Z,44.89
2022-07-25T18:46:38.862Z,45.55
2022-07-25T18:49:08.972Z,45.83
2022-07-25T18:51:36.026Z,46.10
2022-07-25T18:54:03.077Z,46.17
2022-07-25T18:56:30.841Z,46.74
2022-07-25T19:01:55.086Z,47.06
2022-07-25T19:04:22.821Z,47.44
2022-07-25T19:06:50.277Z,47.52
2022-07-25T19:09:19.113Z,47.87
2022-07-25T19:11:46.281Z,47.87
2022-07-25T19:14:13.615Z,48.82
2022-07-25T19:16:41.135Z,49.11
2022-07-25T19:19:10.906Z,49.81
2022-07-25T19:21:40.216Z,50.24
2022-07-25T19:24:07.845Z,50.32
2022-07-25T19:26:35.237Z,50.95
2022-07-25T19:29:02.211Z,52.17
2022-07-25T19:31:29.476Z,51.21
2022-07-25T19:33:56.489Z,51.80
2022-07-25T19:36:23.567Z,52.39
2022-07-25T19:38:50.783Z,52.92
2022-07-25T19:41:17.881Z,53.25
2022-07-25T19:43:47.191Z,54.80
2022-07-25T19:46:16.691Z,54.18
2022-07-25T19:48:43.995Z,54.52
2022-07-25T19:51:13.331Z,55.09
2022-07-25T19:53:40.611Z,55.42
2022-07-25T19:56:08.581Z,56.08
2022-07-25T19:58:38.883Z,56.37
2022-07-25T20:01:12.330Z,57.65
2022-07-25T20:03:41.915Z,58.17
2022-07-25T20:06:11.528Z,57.52
2022-07-25T20:08:39.643Z,57.33
2022-07-25T20:11:07.790Z,57.87
2022-07-25T20:13:37.903Z,57.81
2022-07-25T20:16:05.847Z,58.52
2022-07-25T20:18:32.999Z,58.05
2022-07-25T20:21:00.364Z,58.27
2022-07-25T20:23:27.864Z,59.19
2022-07-25T20:25:55.044Z,59.42
2022-07-25T20:28:22.235Z,60.00
2022-07-25T20:30:50.676Z,60.01
2022-07-25T20:33:18.387Z,59.09
2022-07-25T20:35:46.557Z,59.08
2022-07-25T20:38:13.562Z,59.16
2022-07-25T20:40:48.053Z,60.38
2022-07-25T20:43:16.637Z,60.25
2022-07-25T20:45:43.842Z,60.56
2022-07-25T20:48:11.162Z,60.87
2022-07-25T20:50:39.375Z,61.51
2022-07-25T20:53:07.472Z,62.02
2022-07-25T20:55:35.447Z,61.68
2022-07-25T20:58:05.243Z,61.95
2022-07-25T21:00:32.726Z,62.67
2022-07-25T21:03:00.474Z,62.52
2022-07-25T21:05:28.139Z,62.42
2022-07-25T21:07:55.922Z,63.02
2022-07-25T21:10:23.432Z,63.08
2022-07-25T21:12:52.890Z,63.33
2022-07-25T21:15:20.206Z,63.84
2022-07-25T21:17:47.563Z,64.22
2022-07-25T21:20:15.792Z,64.75
2022-07-25T21:22:43.448Z,64.96
2022-07-25T21:25:11.003Z,65.20
2022-07-25T21:27:39.093Z,65.52
2022-07-25T21:30:08.799Z,65.65
2022-07-25T21:32:36.243Z,65.54
2022-07-25T21:35:05.023Z,65.93
2022-07-25T21:37:32.278Z,65.96
2022-07-25T21:39:59.802Z,66.50
2022-07-25T21:42:26.999Z,67.24
2022-07-25T21:44:53.954Z,67.21
2022-07-25T21:47:21.212Z,67.73
2022-07-25T21:50:24.312Z,67.83
2022-07-25T21:52:52.509Z,67.83
2022-07-25T21:55:21.173Z,69.15
2022-07-25T21:57:49.031Z,69.08
2022-07-25T22:00:16.293Z,69.26
2022-07-25T22:02:45.999Z,69.61
2022-07-25T22:05:14.479Z,69.80
2022-07-25T22:07:42.523Z,70.18
2022-07-25T22:10:11.841Z,70.61
2022-07-25T22:12:40.282Z,70.91
2022-07-25T22:15:12.163Z,71.49
2022-07-25T22:17:48.301Z,71.72
2022-07-25T22:20:17.271Z,71.75
2022-07-25T22:22:44.671Z,72.16
2022-07-25T22:25:11.826Z,72.79
2022-07-25T22:27:38.869Z,73.06
2022-07-25T22:30:13.349Z,73.60
2022-07-25T22:32:43.416Z,73.87
2022-07-25T22:35:10.685Z,73.88
2022-07-25T22:37:43.053Z,74.58
2022-07-25T22:40:10.478Z,74.70
2022-07-25T22:42:37.643Z,74.42
2022-07-25T22:45:08.379Z,74.28
2022-07-25T22:47:35.530Z,74.54
2022-07-25T22:50:02.791Z,74.54
2022-07-25T22:52:30.291Z,74.53
2022-07-25T22:54:57.312Z,74.26
2022-07-25T22:57:24.498Z,74.34
2022-07-25T22:59:51.674Z,74.90
2022-07-25T23:02:18.770Z,75.12
2022-07-25T23:04:45.928Z,75.34
2022-07-25T23:07:12.936Z,75.65
2022-07-25T23:09:39.871Z,75.88
2022-07-25T23:12:09.498Z,75.86
2022-07-25T23:14:36.549Z,75.78
2022-07-25T23:17:17.821Z,75.79
2022-07-25T23:19:46.198Z,75.55
2022-07-25T23:22:13.534Z,76.48
2022-07-25T23:24:40.939Z,76.42
2022-07-25T23:27:08.683Z,77.07
2022-07-25T23:29:38.505Z,79.24
2022-07-25T23:32:06.216Z,79.87
2022-07-25T23:34:34.311Z,80.66
2022-07-25T23:37:01.419Z,80.96
2022-07-25T23:39:29.483Z,80.89
2022-07-25T23:41:56.611Z,81.96
2022-07-25T23:44:23.792Z,81.77
2022-07-25T23:46:55.373Z,83.32
2022-07-25T23:49:23.926Z,83.19
2022-07-25T23:51:51.256Z,83.65
2022-07-25T23:54:18.362Z,84.28
2022-07-25T23:56:45.507Z,84.42
2022-07-25T23:59:12.849Z,84.62
